Tiempo atmosférico en la estación meteorológica de Carballo, Depuradora, A Coruña (98 m.)



Fecha
DESCASC
Temp. máxima en grados centígrados (hora)
DESCASC
Temp. mínima en grados centígrados (hora)
DESCASC
Temp. media en grados centígrados
DESCASC
Racha de viento máxima en m/sg (hora)
DESCASC
Velocidad máxima media en intervalos de 10 minutos(hora)
DESCASC
Precipitaciones diarias en mm
DESCASC
Precipitaciones de 00:00 a 06:00 en mm
DESCASC
Precipitaciones de 06:00 a 12:00 en mm
DESCASC
Precipitaciones de 12:00 a 18:00 en mm
DESCASC
Precipitaciones de 18:00 a 24:00 en mm
DESCASC
04-09-2020 30.2 (14:30) 10.3 (00:00) 20.3 -- (--) -- (--) 0 0 0 0 0
18-09-2020 24.9 (15:30) 14.6 (00:00) 19.8 -- (--) -- (--) 4.2 0.4 0 3.8 0
16-09-2020 26.1 (14:00) 11.6 (00:00) 18.9 -- (--) -- (--) 0 0 0 0 0
15-09-2020 25.3 (16:10) 15.1 (00:00) 20.2 -- (--) -- (--) 0 0 0 0 0
14-09-2020 26.7 (16:20) 16.5 (00:00) 21.6 -- (--) -- (--) 0 0 0 0 0
13-09-2020 35.8 (16:30) 12.6 (00:00) 24.2 -- (--) -- (--) 0 0 0 0 0
12-09-2020 29.1 (18:40) 11.8 (00:00) 20.5 -- (--) -- (--) 0 0 0 0 0
11-09-2020 26.1 (14:40) 10 (00:00) 18.1 -- (--) -- (--) 0 0 0 0 0
10-09-2020 25.1 (14:50) 8.5 (00:00) 16.8 -- (--) -- (--) 0 0 0 0 0
09-09-2020 25.6 (16:40) 8.9 (00:00) 17.3 -- (--) -- (--) 0 0 0 0 0
08-09-2020 25.2 (17:30) 8.1 (00:00) 16.7 -- (--) -- (--) 0 0 0 0 0
07-09-2020 23.3 (16:20) 8.9 (08:20) 16.1 -- (--) -- (--) 0 0 0 0 0
06-09-2020 20.8 (14:20) 15.7 (00:00) 18.2 -- (--) -- (--) 0 0 0 0 0
05-09-2020 20.3 (11:10) 17 (00:00) 18.6 -- (--) -- (--) 0 0 0 0 0
20-08-2020 22.7 (15:20) 13.7 (00:00) 18.2 -- (--) -- (--) 0 0 0 0 0
03-09-2020 27.1 (15:10) 8.6 (00:00) 17.9 -- (--) -- (--) 0 0 0 0 0
02-09-2020 22.1 (15:50) 8.7 (00:00) 15.4 -- (--) -- (--) 0 0 0 0 0
01-09-2020 21.9 (16:20) 10.6 (00:00) 16.3 -- (--) -- (--) 0 0 0 0 0
31-08-2020 23.3 (18:40) 5 (00:00) 14.1 -- (--) -- (--) 0 0 0 0 0
30-08-2020 20 (14:00) 9.5 (00:00) 14.8 -- (--) -- (--) 0 0 0 0 0
29-08-2020 19.4 (16:50) 11.9 (00:00) 15.6 -- (--) -- (--) 8 1.2 5.8 1 0
26-08-2020 27 (16:40) 19.2 (00:00) 23.1 -- (--) -- (--) 0 0 0 0 0
25-08-2020 25 (15:40) 12.8 (00:00) 18.9 -- (--) -- (--) 0 0 0 0 0
24-08-2020 26 (17:00) 10.2 (00:00) 18.1 -- (--) -- (--) 0 0 0 0 0
23-08-2020 23.5 (16:10) 13 (00:00) 18.3 -- (--) -- (--) 0 0 0 0 0
22-08-2020 24.8 (16:30) 10.8 (00:00) 17.8 -- (--) -- (--) 0 0 0 0 0
21-08-2020 25 (13:30) 15 (00:00) 20 -- (--) -- (--) 1.2 1.2 0 0 0
28-08-2020 20.1 (17:10) 11.6 (00:00) 15.9 -- (--) -- (--) 1.4 0 0.2 1 0.2
27-08-2020 24.9 (16:10) 17.6 (00:00) 21.3 -- (--) -- (--) 0.8 0.2 0 0 0.6
17-09-2020 26.8 (15:00) 13.4 (00:00) 20.1 -- (--) -- (--) 36.6 0 0 0 36.6

Gráficas

Temp. máximas Temp. mínimas Temp. medias Precipitaciones Rachas de viento máximas Velocidades máximas media en intervalos de 10 minutos

Datos horarios

Fecha y hora oficial Temperatura (ºC) Velocidad del viento (km/h) Dirección del viento Racha (km/h) Dirección de racha Precipitación (mm) Presión (hPa) Tendencia (hPa) Humedad (%)